Current Conditions
Clear
Conditions




Pressure
1033.52 (mb) - 30.52 (inHG)
Visibility

6.2 (mimiles) - 10.0 (km)
   Temperature
22  °C
72°F
9  °C
Dewpoint
44  %
 Humidity
   Wind Speed
0  mph
0  kts
0  km/h
0  m/s
   Wind Direction
Calm
Due North
   Airport Data
EGUL
Location RAF Lakenheath 4 mi (6.44 km)
Metar :EGUL 251156Z AUTO 00000KT 9999 CLR 22/09 A3052 RMK AO2 SLP338 T02200088 10227 20110 57007 $
Mon 25th May 12:56 pm
   Raw Metar Info
Raw METAR is the most common format in the world for the transmission of observational weather data. It is highly standardized through the International Civil Aviation Organization (ICAO), which allows it to be understood throughout most of the world.
   API Info
Data Provided by
https://www.checkwx.com/weather/EGUL
   © Info
CSS/SVG/PHP scripts were developed by weather34.com for use in the weather34 template © 2015-2020

Guide Info provided by Metar-Wikipedia